Time;durP1;ratioP1;P1;durP2;ratioP2;P2;SDS_P1;SDS_P2;PMS_P1;PMS_P2;Temp;Humidity;BMP_temperature;BMP_pressure;BME280_temperature;BME280_humidity;BME280_pressure;Samples;Min_cycle;Max_cycle;Signal;HPM_P1;HPM_P2
2023/08/06 00:00:40;;;;;;;2.53;1.98;;;;;;;;;;5056768;28;20449;-54
2023/08/06 00:03:06;;;;;;;1.80;1.70;;;;;;;;;;5050517;28;20199;-54
2023/08/06 00:05:32;;;;;;;4.22;1.92;;;;;;;;;;5056239;28;20463;-55
2023/08/06 00:07:58;;;;;;;2.65;1.80;;;;;;;;;;5056426;28;20587;-54
2023/08/06 00:10:24;;;;;;;2.47;2.20;;;;;;;;;;5055610;28;20179;-54
2023/08/06 00:12:50;;;;;;;2.08;1.98;;;;;;;;;;5055699;28;20518;-55
2023/08/06 00:15:16;;;;;;;2.13;1.77;;;;;;;;;;5038594;28;20183;-54
2023/08/06 00:17:42;;;;;;;2.45;2.25;;;;;;;;;;5046883;28;20237;-54
2023/08/06 00:20:08;;;;;;;2.33;1.83;;;;;;;;;;5049829;28;20446;-54
2023/08/06 00:22:38;;;;;;;3.15;2.10;;;;;;;;;;5047908;28;20259;-54
2023/08/06 00:25:04;;;;;;;2.50;2.22;;;;;;;;;;5038709;28;20444;-54
2023/08/06 00:27:30;;;;;;;2.22;2.03;;;;;;;;;;5055918;28;20626;-54
2023/08/06 00:29:56;;;;;;;3.10;2.28;;;;;;;;;;5055775;28;20256;-54
2023/08/06 00:32:22;;;;;;;4.88;2.10;;;;;;;;;;5039495;28;20211;-54
2023/08/06 00:34:51;;;;;;;4.28;3.13;;;;;;;;;;5044597;28;20179;-54
2023/08/06 00:37:17;;;;;;;3.85;2.25;;;;;;;;;;5055056;28;20179;-54
2023/08/06 00:39:43;;;;;;;2.42;2.22;;;;;;;;;;5055672;28;20183;-54
2023/08/06 00:42:10;;;;;;;2.10;1.80;;;;;;;;;;5055368;28;20183;-54
2023/08/06 00:44:36;;;;;;;2.25;2.05;;;;;;;;;;5054580;28;20197;-54
2023/08/06 00:47:02;;;;;;;2.35;2.15;;;;;;;;;;5053067;28;20210;-54
2023/08/06 00:49:28;;;;;;;2.78;2.00;;;;;;;;;;5051424;28;20179;-55
2023/08/06 00:51:54;;;;;;;2.17;1.90;;;;;;;;;;5054737;28;20178;-55
2023/08/06 00:54:20;;;;;;;2.63;2.03;;;;;;;;;;5055427;28;20210;-54
2023/08/06 00:56:47;;;;;;;2.17;1.98;;;;;;;;;;5055166;28;20555;-55
2023/08/06 00:59:13;;;;;;;2.72;2.30;;;;;;;;;;5055246;28;20338;-54
2023/08/06 01:01:39;;;;;;;2.10;1.90;;;;;;;;;;5037161;28;20263;-55
2023/08/06 01:04:04;;;;;;;3.33;1.80;;;;;;;;;;5042743;28;20626;-54
2023/08/06 01:06:51;;;;;;;2.05;1.90;;;;;;;;;;5054263;28;20205;-54
2023/08/06 01:09:26;;;;;;;3.30;2.22;;;;;;;;;;5047979;28;20213;-54
2023/08/06 01:12:00;;;;;;;2.70;1.80;;;;;;;;;;5046476;28;20601;-54
2023/08/06 01:14:31;;;;;;;2.03;1.80;;;;;;;;;;5051174;28;20310;-54
2023/08/06 01:16:59;;;;;;;4.75;2.00;;;;;;;;;;5051836;28;20193;-54
2023/08/06 01:19:25;;;;;;;3.28;2.25;;;;;;;;;;5054519;28;20521;-54
2023/08/06 01:21:51;;;;;;;3.28;1.80;;;;;;;;;;5035580;28;20265;-54
2023/08/06 01:24:17;;;;;;;2.85;2.00;;;;;;;;;;5048944;28;20538;-55
2023/08/06 01:26:44;;;;;;;2.83;2.28;;;;;;;;;;5054457;28;20542;-55
2023/08/06 01:29:19;;;;;;;2.90;2.20;;;;;;;;;;5054768;28;20213;-55
2023/08/06 01:31:48;;;;;;;2.65;1.73;;;;;;;;;;5054533;28;20174;-55
2023/08/06 01:34:18;;;;;;;2.40;1.90;;;;;;;;;;5054934;28;20629;-55
2023/08/06 01:36:44;;;;;;;2.08;1.90;;;;;;;;;;5042917;28;20187;-54
2023/08/06 01:39:10;;;;;;;3.75;2.38;;;;;;;;;;5053151;28;20175;-55
2023/08/06 01:41:36;;;;;;;2.13;1.67;;;;;;;;;;5054430;28;20323;-55
2023/08/06 01:44:02;;;;;;;1.90;1.80;;;;;;;;;;5049881;28;20211;-55
2023/08/06 01:46:28;;;;;;;2.47;2.25;;;;;;;;;;5046457;28;20276;-55
2023/08/06 01:48:54;;;;;;;2.33;2.08;;;;;;;;;;5048073;28;20218;-54
2023/08/06 01:51:20;;;;;;;3.20;2.25;;;;;;;;;;5042564;28;20201;-54
2023/08/06 01:53:46;;;;;;;2.20;2.00;;;;;;;;;;5054219;28;20602;-54
2023/08/06 01:56:12;;;;;;;2.53;2.33;;;;;;;;;;5054205;28;20428;-55
2023/08/06 01:58:37;;;;;;;1.92;1.70;;;;;;;;;;5052545;28;20444;-54
2023/08/06 02:01:03;;;;;;;2.38;2.15;;;;;;;;;;5050999;28;20232;-55
2023/08/06 02:03:29;;;;;;;2.22;2.10;;;;;;;;;;5044462;28;20184;-54
2023/08/06 02:05:55;;;;;;;3.55;1.85;;;;;;;;;;5049093;28;20309;-55
2023/08/06 02:08:21;;;;;;;2.35;1.80;;;;;;;;;;5054385;28;20187;-55
2023/08/06 02:10:47;;;;;;;2.92;1.85;;;;;;;;;;5053422;28;20195;-56
2023/08/06 02:13:13;;;;;;;2.15;1.95;;;;;;;;;;5056235;28;20207;-56
2023/08/06 02:15:43;;;;;;;1.85;1.75;;;;;;;;;;5058029;28;20183;-56
2023/08/06 02:18:09;;;;;;;2.65;2.00;;;;;;;;;;5046281;28;20182;-56
2023/08/06 02:20:35;;;;;;;2.33;1.83;;;;;;;;;;5052317;28;20186;-56
2023/08/06 02:23:01;;;;;;;2.05;1.80;;;;;;;;;;5054565;28;20654;-57
2023/08/06 02:25:26;;;;;;;2.17;1.70;;;;;;;;;;5040833;28;20245;-57
2023/08/06 02:27:52;;;;;;;2.22;1.80;;;;;;;;;;5057482;28;20206;-56
2023/08/06 02:30:18;;;;;;;1.88;1.70;;;;;;;;;;5057849;28;20183;-56
2023/08/06 02:32:44;;;;;;;1.67;1.58;;;;;;;;;;5056295;28;20249;-55
2023/08/06 02:35:10;;;;;;;1.95;1.60;;;;;;;;;;5038823;28;20258;-56
2023/08/06 02:37:36;;;;;;;1.52;1.42;;;;;;;;;;5055727;28;20716;-55
2023/08/06 02:40:03;;;;;;;1.67;1.58;;;;;;;;;;5056568;28;20221;-55
2023/08/06 02:42:29;;;;;;;3.45;1.70;;;;;;;;;;5057410;28;20194;-55
2023/08/06 02:44:55;;;;;;;1.50;1.40;;;;;;;;;;5052484;28;20558;-56
2023/08/06 02:47:21;;;;;;;1.70;1.48;;;;;;;;;;5055773;28;20187;-56
2023/08/06 02:49:47;;;;;;;4.97;2.03;;;;;;;;;;5051097;28;20214;-56
2023/08/06 02:52:13;;;;;;;1.60;1.50;;;;;;;;;;5037647;28;20183;-56
2023/08/06 02:54:39;;;;;;;2.53;2.22;;;;;;;;;;5051937;28;20202;-56
2023/08/06 02:57:05;;;;;;;2.50;1.70;;;;;;;;;;5057220;28;20179;-56
2023/08/06 02:59:31;;;;;;;2.00;1.60;;;;;;;;;;5051258;28;20176;-56
2023/08/06 03:01:57;;;;;;;2.03;1.65;;;;;;;;;;5057271;28;20190;-56
2023/08/06 03:04:23;;;;;;;1.63;1.52;;;;;;;;;;5057657;28;20187;-56
2023/08/06 03:06:50;;;;;;;3.30;1.63;;;;;;;;;;5056729;28;20191;-57
2023/08/06 03:09:16;;;;;;;2.35;1.77;;;;;;;;;;5057731;28;20191;-57
2023/08/06 03:11:42;;;;;;;1.75;1.65;;;;;;;;;;5047478;28;20215;-57
2023/08/06 03:14:08;;;;;;;1.33;1.25;;;;;;;;;;5045622;28;20249;-57
2023/08/06 03:16:34;;;;;;;2.15;1.45;;;;;;;;;;5047790;28;20215;-57
2023/08/06 03:19:00;;;;;;;2.25;1.98;;;;;;;;;;5057311;28;20559;-57
2023/08/06 03:21:26;;;;;;;1.88;1.50;;;;;;;;;;5056555;28;20236;-57
2023/08/06 03:23:52;;;;;;;5.93;1.70;;;;;;;;;;5057249;28;20580;-57
2023/08/06 03:26:18;;;;;;;1.90;1.80;;;;;;;;;;5056436;28;20562;-57
2023/08/06 03:28:44;;;;;;;3.00;1.80;;;;;;;;;;5056892;28;20179;-57
2023/08/06 03:31:10;;;;;;;1.83;1.58;;;;;;;;;;5056721;28;20595;-57
2023/08/06 03:33:36;;;;;;;2.78;1.63;;;;;;;;;;5049972;28;20590;-57
2023/08/06 03:36:02;;;;;;;1.83;1.48;;;;;;;;;;5050423;28;20210;-56
2023/08/06 03:38:28;;;;;;;1.55;1.45;;;;;;;;;;5056514;28;20175;-56
2023/08/06 03:40:54;;;;;;;1.85;1.70;;;;;;;;;;5056485;28;20564;-56
2023/08/06 03:43:20;;;;;;;1.65;1.50;;;;;;;;;;5051564;28;20207;-57
2023/08/06 03:45:46;;;;;;;2.30;1.77;;;;;;;;;;5050247;28;20430;-57
2023/08/06 03:48:12;;;;;;;1.90;1.80;;;;;;;;;;5056160;28;20191;-57
2023/08/06 03:50:38;;;;;;;1.60;1.50;;;;;;;;;;5056028;28;20187;-57
2023/08/06 03:53:04;;;;;;;2.22;1.70;;;;;;;;;;5055997;28;20229;-57
2023/08/06 03:55:30;;;;;;;1.70;1.60;;;;;;;;;;5056368;28;20179;-57
2023/08/06 03:57:56;;;;;;;2.20;1.38;;;;;;;;;;5056226;28;20757;-57
2023/08/06 04:00:22;;;;;;;1.95;1.50;;;;;;;;;;5056033;28;20521;-56
2023/08/06 04:02:49;;;;;;;1.67;1.58;;;;;;;;;;5056294;28;20820;-56
2023/08/06 04:05:15;;;;;;;2.13;1.65;;;;;;;;;;5055989;28;20180;-56
2023/08/06 04:07:41;;;;;;;1.55;1.45;;;;;;;;;;5055483;28;20306;-57
2023/08/06 04:10:07;;;;;;;2.25;1.83;;;;;;;;;;5054312;28;20182;-57
2023/08/06 04:12:36;;;;;;;1.50;1.40;;;;;;;;;;5055297;28;20262;-57
2023/08/06 04:15:03;;;;;;;2.35;1.90;;;;;;;;;;5056285;28;20175;-56
2023/08/06 04:17:29;;;;;;;1.50;1.40;;;;;;;;;;5055850;28;20495;-56
2023/08/06 04:19:58;;;;;;;2.85;1.60;;;;;;;;;;5055503;28;20258;-56
2023/08/06 04:22:24;;;;;;;2.65;1.50;;;;;;;;;;5055470;28;20225;-56
2023/08/06 04:24:50;;;;;;;1.42;1.33;;;;;;;;;;5056046;28;20558;-56
2023/08/06 04:27:16;;;;;;;1.63;1.52;;;;;;;;;;5056122;28;20225;-56
2023/08/06 04:29:42;;;;;;;3.67;1.60;;;;;;;;;;5055167;28;20194;-56
2023/08/06 04:32:10;;;;;;;1.90;1.80;;;;;;;;;;5055033;28;20543;-56
2023/08/06 04:34:36;;;;;;;2.08;1.60;;;;;;;;;;5054894;28;20210;-56
2023/08/06 04:37:03;;;;;;;1.80;1.67;;;;;;;;;;5045693;28;20202;-56
2023/08/06 04:39:29;;;;;;;1.50;1.40;;;;;;;;;;5046670;28;20190;-56
2023/08/06 04:41:56;;;;;;;2.35;1.40;;;;;;;;;;5055007;28;20179;-56
2023/08/06 04:44:22;;;;;;;1.80;1.48;;;;;;;;;;5056046;28;20550;-56
2023/08/06 04:46:48;;;;;;;1.48;1.38;;;;;;;;;;5055656;28;20240;-56
2023/08/06 04:49:14;;;;;;;2.00;1.45;;;;;;;;;;5054871;28;20301;-56
2023/08/06 04:51:40;;;;;;;1.67;1.58;;;;;;;;;;5054332;28;20270;-56
2023/08/06 04:54:06;;;;;;;1.70;1.60;;;;;;;;;;5055710;28;20203;-56
2023/08/06 04:56:32;;;;;;;1.55;1.20;;;;;;;;;;5055186;28;20183;-57
2023/08/06 04:59:00;;;;;;;2.35;1.60;;;;;;;;;;5052083;28;20337;-57
2023/08/06 05:01:26;;;;;;;2.00;1.50;;;;;;;;;;5054978;28;20174;-57
2023/08/06 05:03:52;;;;;;;2.50;1.50;;;;;;;;;;5054957;28;20697;-57
2023/08/06 05:06:18;;;;;;;1.90;1.75;;;;;;;;;;5046412;28;20230;-57
2023/08/06 05:08:44;;;;;;;1.95;1.67;;;;;;;;;;5038861;28;20558;-57
2023/08/06 05:11:10;;;;;;;1.95;1.58;;;;;;;;;;5053761;28;20214;-57
2023/08/06 05:13:36;;;;;;;3.28;1.70;;;;;;;;;;5055189;28;20187;-57
2023/08/06 05:16:02;;;;;;;1.77;1.50;;;;;;;;;;5055105;28;20550;-57
2023/08/06 05:18:28;;;;;;;1.90;1.70;;;;;;;;;;5054782;28;20278;-57
2023/08/06 05:20:54;;;;;;;2.65;1.88;;;;;;;;;;5036732;28;20620;-57
2023/08/06 05:23:20;;;;;;;2.00;1.60;;;;;;;;;;5043104;28;20191;-57
2023/08/06 05:25:46;;;;;;;3.28;1.73;;;;;;;;;;5040564;28;20448;-57
2023/08/06 05:28:12;;;;;;;1.77;1.65;;;;;;;;;;5054499;28;20650;-57
2023/08/06 05:30:41;;;;;;;2.70;1.83;;;;;;;;;;5054118;28;20262;-57
2023/08/06 05:33:07;;;;;;;1.83;1.67;;;;;;;;;;5054336;28;20653;-57
2023/08/06 05:35:33;;;;;;;2.17;1.58;;;;;;;;;;5055076;28;20203;-57
2023/08/06 05:37:59;;;;;;;2.25;1.40;;;;;;;;;;5046468;28;20182;-57
2023/08/06 05:40:25;;;;;;;1.83;1.50;;;;;;;;;;5053668;28;20286;-57
2023/08/06 05:42:52;;;;;;;1.30;1.20;;;;;;;;;;5054199;28;20215;-56
2023/08/06 05:45:18;;;;;;;1.50;1.40;;;;;;;;;;5054967;28;20187;-56
2023/08/06 05:47:44;;;;;;;1.73;1.60;;;;;;;;;;5054172;28;20183;-56
2023/08/06 05:50:10;;;;;;;2.25;1.30;;;;;;;;;;5053490;28;20190;-56
2023/08/06 05:52:36;;;;;;;1.58;1.40;;;;;;;;;;5048873;28;20176;-55
2023/08/06 05:55:02;;;;;;;2.35;1.60;;;;;;;;;;5043895;28;20200;-56
2023/08/06 05:57:28;;;;;;;2.80;1.73;;;;;;;;;;5054388;28;20183;-56
2023/08/06 05:59:54;;;;;;;2.03;1.65;;;;;;;;;;5053549;28;20481;-56
2023/08/06 06:02:20;;;;;;;2.95;1.58;;;;;;;;;;5053728;28;20313;-56
2023/08/06 06:04:46;;;;;;;2.88;1.70;;;;;;;;;;5049478;28;20186;-56
2023/08/06 06:07:12;;;;;;;3.20;1.73;;;;;;;;;;5054241;28;20187;-56
2023/08/06 06:09:39;;;;;;;1.52;1.40;;;;;;;;;;5053157;28;20171;-56
2023/08/06 06:12:05;;;;;;;2.72;1.50;;;;;;;;;;5053407;28;20179;-55
2023/08/06 06:14:31;;;;;;;3.88;1.48;;;;;;;;;;5054294;28;20482;-56
2023/08/06 06:16:57;;;;;;;3.55;1.60;;;;;;;;;;5054468;28;20185;-56
2023/08/06 06:19:23;;;;;;;4.22;2.38;;;;;;;;;;5050173;28;20175;-55
2023/08/06 06:21:49;;;;;;;2.58;1.55;;;;;;;;;;5053115;28;20550;-55
2023/08/06 06:24:15;;;;;;;1.80;1.50;;;;;;;;;;5053485;28;20237;-55
2023/08/06 06:26:41;;;;;;;2.35;1.45;;;;;;;;;;5054153;28;20194;-55
2023/08/06 06:29:07;;;;;;;3.22;1.30;;;;;;;;;;5053556;28;20191;-55
2023/08/06 06:31:33;;;;;;;3.80;1.75;;;;;;;;;;5052696;28;20190;-55
2023/08/06 06:33:58;;;;;;;1.63;1.52;;;;;;;;;;5054166;28;20673;-55
2023/08/06 06:36:24;;;;;;;1.42;1.27;;;;;;;;;;5034883;28;20827;-55
2023/08/06 06:38:50;;;;;;;3.45;1.33;;;;;;;;;;5038884;28;20443;-55
2023/08/06 06:41:16;;;;;;;1.65;1.55;;;;;;;;;;5051067;28;20720;-55
2023/08/06 06:43:42;;;;;;;1.77;1.35;;;;;;;;;;5045907;28;20422;-55
2023/08/06 06:46:08;;;;;;;1.58;1.48;;;;;;;;;;5044345;28;20183;-55
2023/08/06 06:48:34;;;;;;;9.63;1.30;;;;;;;;;;5047569;28;20199;-55
2023/08/06 06:51:00;;;;;;;2.38;1.38;;;;;;;;;;5045599;28;20187;-47
2023/08/06 06:53:30;;;;;;;1.42;1.30;;;;;;;;;;5035628;28;20210;-48
2023/08/06 06:56:05;;;;;;;2.45;1.27;;;;;;;;;;5052736;28;20516;-47
2023/08/06 06:58:32;;;;;;;2.58;1.40;;;;;;;;;;5046579;28;20194;-48
2023/08/06 07:00:58;;;;;;;1.35;1.10;;;;;;;;;;5044701;28;20187;-49
2023/08/06 07:03:24;;;;;;;2.25;1.10;;;;;;;;;;5039435;28;20199;-44
2023/08/06 07:05:50;;;;;;;2.80;1.67;;;;;;;;;;5043385;28;20168;-47
2023/08/06 07:08:16;;;;;;;1.33;1.20;;;;;;;;;;5040827;28;20207;-45
2023/08/06 07:10:43;;;;;;;2.42;1.60;;;;;;;;;;5038880;28;20198;-50
2023/08/06 07:13:09;;;;;;;6.40;1.20;;;;;;;;;;5038246;28;20278;-49
2023/08/06 07:15:35;;;;;;;1.70;1.33;;;;;;;;;;5048482;28;20290;-49
2023/08/06 07:18:01;;;;;;;3.08;1.42;;;;;;;;;;5048272;28;20255;-48
2023/08/06 07:20:31;;;;;;;1.80;1.40;;;;;;;;;;5054296;28;20309;-48
2023/08/06 07:22:57;;;;;;;1.25;1.15;;;;;;;;;;5044243;28;20192;-48
2023/08/06 07:25:23;;;;;;;1.60;1.50;;;;;;;;;;5044923;28;20761;-48
2023/08/06 07:27:49;;;;;;;2.70;1.10;;;;;;;;;;5040511;28;20190;-48
2023/08/06 07:30:15;;;;;;;1.70;1.40;;;;;;;;;;5037028;28;20186;-48
2023/08/06 07:32:41;;;;;;;2.38;1.60;;;;;;;;;;5048753;28;20207;-48
2023/08/06 07:35:09;;;;;;;1.38;1.20;;;;;;;;;;5042889;28;20229;-48
2023/08/06 07:37:35;;;;;;;1.38;1.27;;;;;;;;;;5047698;28;20183;-48
2023/08/06 07:40:01;;;;;;;1.42;1.30;;;;;;;;;;5048699;28;20188;-48
2023/08/06 07:42:27;;;;;;;1.50;1.40;;;;;;;;;;5047962;28;20183;-47
2023/08/06 07:44:54;;;;;;;1.55;1.00;;;;;;;;;;5050709;28;20217;-48
2023/08/06 07:47:20;;;;;;;2.50;1.20;;;;;;;;;;5051490;28;20197;-48
2023/08/06 07:49:46;;;;;;;2.90;1.38;;;;;;;;;;5051136;28;20179;-48
2023/08/06 07:52:12;;;;;;;1.83;1.33;;;;;;;;;;5039493;28;20676;-48
2023/08/06 07:54:38;;;;;;;3.75;1.30;;;;;;;;;;5046783;28;20203;-48
2023/08/06 07:57:04;;;;;;;2.45;1.73;;;;;;;;;;5048086;28;20523;-48
2023/08/06 07:59:30;;;;;;;2.58;1.23;;;;;;;;;;5051705;28;20594;-48
2023/08/06 08:01:56;;;;;;;1.85;1.38;;;;;;;;;;5050361;28;20196;-48
2023/08/06 08:04:22;;;;;;;2.78;1.30;;;;;;;;;;5056035;28;20191;-48
2023/08/06 08:06:48;;;;;;;1.27;1.17;;;;;;;;;;5043316;28;20188;-48
2023/08/06 08:09:14;;;;;;;1.25;1.15;;;;;;;;;;5045738;28;20458;-48
2023/08/06 08:11:41;;;;;;;4.32;1.38;;;;;;;;;;5042135;28;20187;-48
2023/08/06 08:14:06;;;;;;;4.45;1.58;;;;;;;;;;5043694;28;20214;-48
2023/08/06 08:16:33;;;;;;;1.55;1.30;;;;;;;;;;5054356;28;20187;-48
2023/08/06 08:18:59;;;;;;;1.20;1.10;;;;;;;;;;5048431;28;20191;-47
2023/08/06 08:21:25;;;;;;;1.58;1.20;;;;;;;;;;5050383;28;20253;-48
2023/08/06 08:23:51;;;;;;;1.17;1.10;;;;;;;;;;5039856;28;20183;-48
2023/08/06 08:26:17;;;;;;;1.83;1.40;;;;;;;;;;5047169;28;20283;-48
2023/08/06 08:28:43;;;;;;;1.55;1.30;;;;;;;;;;5039030;28;20266;-48
2023/08/06 08:31:09;;;;;;;1.73;1.20;;;;;;;;;;5048128;28;20188;-48
2023/08/06 08:33:35;;;;;;;1.70;1.05;;;;;;;;;;5046347;28;20638;-48
2023/08/06 08:36:01;;;;;;;1.30;1.20;;;;;;;;;;5054853;28;20262;-48
2023/08/06 08:38:27;;;;;;;1.30;1.20;;;;;;;;;;5045313;28;20222;-48
2023/08/06 08:40:54;;;;;;;1.25;1.15;;;;;;;;;;5044421;28;20191;-48
2023/08/06 08:43:21;;;;;;;1.58;1.30;;;;;;;;;;5049693;28;20244;-48
2023/08/06 08:45:50;;;;;;;1.67;1.20;;;;;;;;;;5045998;28;20609;-48
2023/08/06 08:48:16;;;;;;;1.52;1.40;;;;;;;;;;5049192;28;20191;-48
2023/08/06 08:50:44;;;;;;;1.17;1.02;;;;;;;;;;5046470;28;20198;-48
2023/08/06 08:53:11;;;;;;;1.30;1.20;;;;;;;;;;5053226;28;20214;-48
2023/08/06 08:55:38;;;;;;;1.30;1.20;;;;;;;;;;5041808;28;20186;-48
2023/08/06 08:58:04;;;;;;;1.58;1.33;;;;;;;;;;5037594;28;20202;-48
2023/08/06 09:00:30;;;;;;;2.67;1.33;;;;;;;;;;5041941;28;20179;-48
2023/08/06 09:02:57;;;;;;;1.98;1.17;;;;;;;;;;5041555;28;20195;-47
2023/08/06 09:05:24;;;;;;;3.45;1.33;;;;;;;;;;5037849;28;20249;-47
2023/08/06 09:07:51;;;;;;;1.35;1.23;;;;;;;;;;5037827;28;20176;-48
2023/08/06 09:10:17;;;;;;;3.22;1.52;;;;;;;;;;5049388;28;20189;-48
2023/08/06 09:12:44;;;;;;;1.30;1.20;;;;;;;;;;5042956;28;20450;-48
2023/08/06 09:15:10;;;;;;;3.60;1.60;;;;;;;;;;5035328;28;20302;-48
2023/08/06 09:17:36;;;;;;;2.17;1.30;;;;;;;;;;5045082;28;20183;-48
2023/08/06 09:20:15;;;;;;;1.30;1.17;;;;;;;;;;5051331;28;20163;-47
2023/08/06 09:22:41;;;;;;;1.98;1.33;;;;;;;;;;5034880;28;20241;-47
2023/08/06 09:25:11;;;;;;;1.52;1.42;;;;;;;;;;5041399;28;20199;-47
2023/08/06 09:27:37;;;;;;;1.55;1.30;;;;;;;;;;5046917;28;20268;-47
2023/08/06 09:30:04;;;;;;;1.95;1.33;;;;;;;;;;5041889;28;20183;-47
2023/08/06 09:32:47;;;;;;;2.25;1.52;;;;;;;;;;5037209;28;20203;-48
2023/08/06 09:35:16;;;;;;;1.48;1.13;;;;;;;;;;5045278;28;20250;-48
2023/08/06 09:37:42;;;;;;;1.40;1.30;;;;;;;;;;5045578;28;20622;-48
2023/08/06 09:40:29;;;;;;;1.63;1.45;;;;;;;;;;5035150;28;20299;-48
2023/08/06 09:42:56;;;;;;;1.95;1.60;;;;;;;;;;5048331;28;20175;-48
2023/08/06 09:45:22;;;;;;;3.88;1.40;;;;;;;;;;5038883;28;20240;-48
2023/08/06 09:47:49;;;;;;;2.47;1.48;;;;;;;;;;5039485;28;20194;-48
2023/08/06 09:50:18;;;;;;;1.40;1.30;;;;;;;;;;5050441;28;20311;-48
2023/08/06 09:52:45;;;;;;;2.40;1.38;;;;;;;;;;5045369;28;20214;-48
2023/08/06 09:55:14;;;;;;;2.15;1.52;;;;;;;;;;5054310;28;20183;-48
2023/08/06 09:57:43;;;;;;;1.88;1.40;;;;;;;;;;5039813;28;20175;-48
2023/08/06 10:00:10;;;;;;;1.60;1.20;;;;;;;;;;5050435;28;20202;-48
2023/08/06 10:02:41;;;;;;;3.17;1.55;;;;;;;;;;5047928;28;20179;-48
2023/08/06 10:05:10;;;;;;;1.45;1.30;;;;;;;;;;5054329;28;20270;-48
2023/08/06 10:07:36;;;;;;;3.90;1.48;;;;;;;;;;5049087;28;20175;-48
2023/08/06 10:10:03;;;;;;;2.17;1.50;;;;;;;;;;5039994;28;20226;-48
2023/08/06 10:12:30;;;;;;;2.22;1.58;;;;;;;;;;5036817;28;20253;-48
2023/08/06 10:14:58;;;;;;;2.53;1.50;;;;;;;;;;5036942;28;20187;-48
2023/08/06 10:17:24;;;;;;;1.60;1.27;;;;;;;;;;5040010;28;20796;-48
2023/08/06 10:19:50;;;;;;;3.72;1.60;;;;;;;;;;5047842;28;20262;-48
2023/08/06 10:22:17;;;;;;;1.77;1.40;;;;;;;;;;5035477;28;20253;-48
2023/08/06 10:24:46;;;;;;;2.60;1.65;;;;;;;;;;5053826;28;20274;-48
2023/08/06 10:27:12;;;;;;;5.07;1.70;;;;;;;;;;5053408;28;20269;-48
2023/08/06 10:29:38;;;;;;;3.22;1.83;;;;;;;;;;5036269;28;20259;-48
2023/08/06 10:32:05;;;;;;;2.35;1.70;;;;;;;;;;5051366;28;20201;-48
2023/08/06 10:34:49;;;;;;;4.00;1.73;;;;;;;;;;5054782;28;20214;-48
2023/08/06 10:37:16;;;;;;;2.53;1.92;;;;;;;;;;5051047;28;20179;-48
2023/08/06 10:39:49;;;;;;;1.95;1.63;;;;;;;;;;5044438;28;20198;-48
2023/08/06 10:42:22;;;;;;;2.55;1.50;;;;;;;;;;5038189;28;20567;-48
2023/08/06 10:45:06;;;;;;;2.35;1.35;;;;;;;;;;5043428;28;20462;-48
2023/08/06 10:47:39;;;;;;;3.08;1.52;;;;;;;;;;5047310;28;20187;-48
2023/08/06 10:50:05;;;;;;;4.82;1.50;;;;;;;;;;5046287;28;20556;-48
2023/08/06 10:52:31;;;;;;;2.35;1.30;;;;;;;;;;5051468;28;20625;-48
2023/08/06 10:54:57;;;;;;;3.20;1.63;;;;;;;;;;5052064;28;20262;-48
2023/08/06 10:57:24;;;;;;;3.40;1.50;;;;;;;;;;5055255;28;20187;-48
2023/08/06 10:59:50;;;;;;;3.78;1.30;;;;;;;;;;5045604;28;20237;-48
2023/08/06 11:02:16;;;;;;;1.67;1.58;;;;;;;;;;5042831;28;20597;-48
2023/08/06 11:04:42;;;;;;;5.50;1.60;;;;;;;;;;5044220;28;20195;-48
2023/08/06 11:07:08;;;;;;;1.98;1.33;;;;;;;;;;5037891;28;20206;-48
2023/08/06 11:09:34;;;;;;;1.48;1.35;;;;;;;;;;5040784;28;20187;-48
2023/08/06 11:12:00;;;;;;;4.15;1.40;;;;;;;;;;5039065;28;20198;-48
2023/08/06 11:14:26;;;;;;;1.40;1.30;;;;;;;;;;5037499;28;20290;-48
2023/08/06 11:16:52;;;;;;;1.55;1.25;;;;;;;;;;5038919;28;20275;-48
2023/08/06 11:19:18;;;;;;;2.42;1.40;;;;;;;;;;5045700;28;20602;-48
2023/08/06 11:21:44;;;;;;;3.10;1.35;;;;;;;;;;5038370;28;20215;-48
2023/08/06 11:24:10;;;;;;;3.05;1.40;;;;;;;;;;5043722;28;20458;-48
2023/08/06 11:26:38;;;;;;;4.55;1.70;;;;;;;;;;5036348;28;20482;-48
2023/08/06 11:29:04;;;;;;;4.10;1.67;;;;;;;;;;5046623;28;20187;-48
2023/08/06 11:31:30;;;;;;;2.15;1.30;;;;;;;;;;5044087;28;20192;-48
2023/08/06 11:33:56;;;;;;;3.20;1.20;;;;;;;;;;5045687;28;20187;-48
2023/08/06 11:36:32;;;;;;;3.17;1.70;;;;;;;;;;5056699;28;20504;-48
2023/08/06 11:38:58;;;;;;;2.00;1.40;;;;;;;;;;5052565;28;20427;-48
2023/08/06 11:41:24;;;;;;;3.03;1.30;;;;;;;;;;5054601;28;20497;-48
2023/08/06 11:43:50;;;;;;;2.10;1.20;;;;;;;;;;5042909;28;20266;-48
2023/08/06 11:46:16;;;;;;;1.70;1.10;;;;;;;;;;5053867;28;20286;-48
2023/08/06 11:48:52;;;;;;;2.88;1.70;;;;;;;;;;5049375;28;20561;-48
2023/08/06 11:51:18;;;;;;;1.40;1.30;;;;;;;;;;5045238;28;20248;-48
2023/08/06 11:53:49;;;;;;;2.25;1.30;;;;;;;;;;5052311;28;20238;-48
2023/08/06 11:56:15;;;;;;;3.78;1.42;;;;;;;;;;5049429;28;20550;-48
2023/08/06 11:58:42;;;;;;;1.80;1.40;;;;;;;;;;5052304;28;20183;-48
2023/08/06 12:01:08;;;;;;;1.70;1.23;;;;;;;;;;5053214;28;20271;-48
2023/08/06 12:03:39;;;;;;;3.03;1.67;;;;;;;;;;5043309;28;20275;-48
2023/08/06 12:06:05;;;;;;;1.33;1.08;;;;;;;;;;5039396;28;20436;-48
2023/08/06 12:08:31;;;;;;;1.83;1.20;;;;;;;;;;5049569;28;20570;-48
2023/08/06 12:10:57;;;;;;;3.90;1.08;;;;;;;;;;5052259;28;20205;-48
2023/08/06 12:13:23;;;;;;;1.75;1.00;;;;;;;;;;5048846;28;20215;-48
2023/08/06 12:15:49;;;;;;;2.65;1.30;;;;;;;;;;5051957;28;20457;-48
2023/08/06 12:18:15;;;;;;;1.50;1.25;;;;;;;;;;5050359;28;20183;-48
2023/08/06 12:20:41;;;;;;;3.30;1.35;;;;;;;;;;5053402;28;20179;-48
2023/08/06 12:23:07;;;;;;;1.95;1.30;;;;;;;;;;5048389;28;20249;-48
2023/08/06 12:25:33;;;;;;;4.82;1.58;;;;;;;;;;5050973;28;20244;-48
2023/08/06 12:27:59;;;;;;;2.05;1.42;;;;;;;;;;5046413;28;20589;-48
2023/08/06 12:30:25;;;;;;;2.55;1.20;;;;;;;;;;5037710;28;20527;-48
2023/08/06 12:32:51;;;;;;;2.70;1.35;;;;;;;;;;5036930;28;20867;-49
2023/08/06 12:35:17;;;;;;;2.20;1.10;;;;;;;;;;5043076;28;20258;-48
2023/08/06 12:37:45;;;;;;;1.63;1.10;;;;;;;;;;5043877;28;20195;-48
2023/08/06 12:40:11;;;;;;;3.15;1.30;;;;;;;;;;5046266;28;20190;-48
2023/08/06 12:42:37;;;;;;;1.25;1.00;;;;;;;;;;5039304;28;20566;-48
2023/08/06 12:45:03;;;;;;;2.00;1.40;;;;;;;;;;5054444;28;20260;-48
2023/08/06 12:47:29;;;;;;;3.63;1.30;;;;;;;;;;5048240;28;20202;-48
2023/08/06 12:49:55;;;;;;;1.65;1.00;;;;;;;;;;5039461;28;20176;-48
2023/08/06 12:52:21;;;;;;;1.23;1.13;;;;;;;;;;5044741;28;20186;-48
2023/08/06 12:54:47;;;;;;;1.52;1.38;;;;;;;;;;5053946;28;20207;-48
2023/08/06 12:57:13;;;;;;;2.05;1.02;;;;;;;;;;5051873;28;20213;-48
2023/08/06 12:59:39;;;;;;;1.38;1.02;;;;;;;;;;5048757;28;20202;-48
2023/08/06 13:02:05;;;;;;;1.90;0.98;;;;;;;;;;5038458;28;20215;-48
2023/08/06 13:04:33;;;;;;;2.03;1.52;;;;;;;;;;5040397;28;20191;-48
2023/08/06 13:06:59;;;;;;;1.30;1.20;;;;;;;;;;5036358;28;20274;-49
2023/08/06 13:09:27;;;;;;;1.33;1.15;;;;;;;;;;5035561;28;20266;-49
2023/08/06 13:11:53;;;;;;;2.00;1.30;;;;;;;;;;5037610;28;20271;-48
2023/08/06 13:14:19;;;;;;;1.33;1.20;;;;;;;;;;5050963;28;20295;-48
2023/08/06 13:16:45;;;;;;;1.20;0.90;;;;;;;;;;5043961;28;20176;-48
2023/08/06 13:19:13;;;;;;;2.50;1.20;;;;;;;;;;5042813;28;20238;-48
2023/08/06 13:21:41;;;;;;;2.03;1.10;;;;;;;;;;5040108;28;20215;-48
2023/08/06 13:24:08;;;;;;;2.05;1.35;;;;;;;;;;5039046;28;20187;-48
2023/08/06 13:26:34;;;;;;;2.60;1.10;;;;;;;;;;5039643;28;20180;-48
2023/08/06 13:29:01;;;;;;;1.33;1.05;;;;;;;;;;5046468;28;20193;-48
2023/08/06 13:31:28;;;;;;;1.83;1.02;;;;;;;;;;5047012;28;20655;-48
2023/08/06 13:33:57;;;;;;;1.42;1.00;;;;;;;;;;5045075;28;20200;-48
2023/08/06 13:36:25;;;;;;;1.35;1.10;;;;;;;;;;5053378;28;20203;-48
2023/08/06 13:38:51;;;;;;;1.25;1.10;;;;;;;;;;5036742;28;20183;-48
2023/08/06 13:41:17;;;;;;;3.08;1.27;;;;;;;;;;5041362;28;20426;-50
2023/08/06 13:43:44;;;;;;;1.00;1.00;;;;;;;;;;5037659;28;20524;-48
2023/08/06 13:46:14;;;;;;;1.58;1.30;;;;;;;;;;5053543;28;20194;-48
2023/08/06 13:48:40;;;;;;;1.30;1.17;;;;;;;;;;5054364;28;20199;-48
2023/08/06 13:51:06;;;;;;;1.20;1.10;;;;;;;;;;5044084;28;20868;-48
2023/08/06 13:53:32;;;;;;;1.48;1.23;;;;;;;;;;5042841;28;20200;-48
2023/08/06 13:55:58;;;;;;;1.67;1.30;;;;;;;;;;5043934;28;20543;-48
2023/08/06 13:58:25;;;;;;;1.48;1.17;;;;;;;;;;5035503;28;20211;-48
2023/08/06 14:00:52;;;;;;;1.55;1.05;;;;;;;;;;5043546;28;20543;-48
2023/08/06 14:03:18;;;;;;;0.90;0.90;;;;;;;;;;5050199;28;20180;-48
2023/08/06 14:05:44;;;;;;;2.72;1.10;;;;;;;;;;5044162;28;20562;-48
2023/08/06 14:08:10;;;;;;;1.50;1.00;;;;;;;;;;5041977;28;20306;-48
2023/08/06 14:10:36;;;;;;;1.25;0.93;;;;;;;;;;5037965;28;20558;-48
2023/08/06 14:13:02;;;;;;;1.13;0.73;;;;;;;;;;5040969;28;20605;-48
2023/08/06 14:15:28;;;;;;;1.27;0.98;;;;;;;;;;5046579;28;20272;-48
2023/08/06 14:17:54;;;;;;;1.25;0.93;;;;;;;;;;5045663;28;20459;-48
2023/08/06 14:20:20;;;;;;;0.82;0.82;;;;;;;;;;5050242;28;20195;-48
2023/08/06 14:22:46;;;;;;;14.38;1.30;;;;;;;;;;5045717;28;20462;-48
2023/08/06 14:25:12;;;;;;;3.38;0.90;;;;;;;;;;5037111;28;20180;-48
2023/08/06 14:27:41;;;;;;;4.60;0.85;;;;;;;;;;5052593;28;20590;-48
2023/08/06 14:30:07;;;;;;;2.35;0.80;;;;;;;;;;5034929;28;20191;-48
2023/08/06 14:32:33;;;;;;;4.65;1.20;;;;;;;;;;5039073;28;20198;-48
2023/08/06 14:34:59;;;;;;;1.20;1.00;;;;;;;;;;5046342;28;20265;-48
2023/08/06 14:37:26;;;;;;;0.85;0.85;;;;;;;;;;5049301;28;20180;-48
2023/08/06 14:39:52;;;;;;;1.33;0.77;;;;;;;;;;5037363;28;20186;-48